Portada
METAR-TAF:

METAR-TAF

Aeropuertos :

Burlington, Iowa, Estados Unidos

latitud: 40-46-22N, longitud: 091-07-31W, altitud: 212 m

Observación

El informe se hizo hace 35 minutos, a las 04:53 UTC
Viento 5 kt del suroeste
Temperatura -1°C
Humedad 86%
Presión 1018 hPa
Visibilidad: 16.1 km
Cielo despejado

METAR: KBRL 040453Z AUTO 23005KT 10SM CLR M01/M03 A3007 RMK AO2 SLP189 T10111033

Hora: 23:28 (05:28 UTC)

Pronóstico

El informe se hizo hace 6 horas y 8 minutos, a las 23:20 UTC
Pronóstico válido del 04 a las 00 UTC al 04 a las 24 UTC
Viento 6 kt del suroeste
Visibilidad: 10 km
Cielo despejado
A partir de las 04 a las 1600 UTC
Viento 7 kt del oeste
Visibilidad: 10 km
Nubes dispersas a una altura de 8000 ft
A partir de las 04 a las 2100 UTC
Viento 8 kt del noroeste
Visibilidad: 10 km
Cielo despejado

TAF: KBRL 032320Z 0400/0424 23006KT P6SM SKC FM041600 26007KT P6SM SCT080 FM042100 32008KT P6SM SKC

Observaciones y pronósticos meteorológicos de más de 4000 aeropuertos (mensajes METAR y TAF).

Los puntos amarillos y rojos representan las estaciones disponibles.

Ponga el ratón en el punto deseado para ver el nombre de la estación.

Haga clic para ver las observaciones y los pronósticos meteorológicos.

Para cambiar el mapa : haga clic en los botones verdes con una cruz de color negro para hacer un zoom, en el botón verde con un guión para alejar o en las flechas verdes para mapas adyacentes.


METAR-TAF: